Time;durP1;ratioP1;P1;durP2;ratioP2;P2;SDS_P1;SDS_P2;PMS_P1;PMS_P2;Temp;Humidity;BMP_temperature;BMP_pressure;BME280_temperature;BME280_humidity;BME280_pressure;Samples;Min_cycle;Max_cycle;Signal;HPM_P1;HPM_P2
2022/04/24 00:04:50;;;;;;;3.28;0.30;;;3.80;99.90;;;;;;21224250;27;20423;-53
2022/04/24 00:14:52;;;;;;;0.75;0.40;;;3.30;99.90;;;;;;21199675;27;20027;-46
2022/04/24 00:24:56;;;;;;;3.85;0.40;;;3.20;99.90;;;;;;21168778;27;20506;-50
2022/04/24 00:34:58;;;;;;;0.32;0.10;;;3.10;99.90;;;;;;21192684;27;20040;-48
2022/04/24 00:45:01;;;;;;;2.58;0.38;;;2.70;99.90;;;;;;21164596;27;20075;-53
2022/04/24 00:55:17;;;;;;;0.30;0.20;;;2.50;99.90;;;;;;21147671;27;20031;-54
2022/04/24 01:05:21;;;;;;;1.98;0.40;;;2.40;99.90;;;;;;21143220;27;20034;-51
2022/04/24 01:15:24;;;;;;;1.35;0.20;;;2.40;99.90;;;;;;21189986;27;20035;-50
2022/04/24 01:25:30;;;;;;;5.15;0.40;;;2.40;99.90;;;;;;21190186;27;20464;-52
2022/04/24 01:35:32;;;;;;;2.40;0.55;;;2.60;99.90;;;;;;21217182;27;20035;-53
2022/04/24 01:45:35;;;;;;;2.15;0.30;;;2.80;99.90;;;;;;21150946;27;20450;-47
2022/04/24 01:55:38;;;;;;;3.60;0.47;;;3.10;99.90;;;;;;21178311;27;20036;-46
2022/04/24 02:05:40;;;;;;;4.30;0.50;;;3.20;99.90;;;;;;21190425;27;20043;-52
2022/04/24 02:15:43;;;;;;;3.28;0.50;;;3.50;99.90;;;;;;21146094;28;20455;-45
2022/04/24 02:25:47;;;;;;;4.55;0.40;;;3.60;99.90;;;;;;21163624;27;20088;-49
2022/04/24 02:35:49;;;;;;;0.55;0.20;;;3.50;99.90;;;;;;21174844;28;20032;-48
2022/04/24 02:46:01;;;;;;;186.00;10.15;;;3.20;99.90;;;;;;21202313;28;20059;-48
2022/04/24 02:56:04;;;;;;;346.10;17.02;;;3.00;99.90;;;;;;21161640;28;20081;-47
2022/04/24 03:06:06;;;;;;;395.58;21.48;;;3.30;99.90;;;;;;21139166;28;20031;-45
2022/04/24 03:16:11;;;;;;;3.97;2.53;;;3.30;99.90;;;;;;21222225;27;20031;-45
2022/04/24 03:26:15;;;;;;;1.55;1.10;;;3.30;99.90;;;;;;21214741;27;20031;-48
2022/04/24 03:36:18;;;;;;;2.28;0.50;;;3.20;99.90;;;;;;21142755;28;20057;-48
2022/04/24 03:46:20;;;;;;;1.00;0.30;;;3.10;99.90;;;;;;21192752;27;20043;-53
2022/04/24 03:56:23;;;;;;;1.35;0.15;;;2.90;99.90;;;;;;21209838;27;20104;-50
2022/04/24 04:06:25;;;;;;;2.83;0.30;;;2.80;99.90;;;;;;21223762;27;20035;-49
2022/04/24 04:16:29;;;;;;;1.48;0.30;;;2.90;99.90;;;;;;21223036;27;20064;-46
2022/04/24 04:26:32;;;;;;;1.98;0.20;;;2.90;99.90;;;;;;21222495;27;20094;-47
2022/04/24 04:36:36;;;;;;;0.47;0.13;;;2.90;99.90;;;;;;21210069;27;20104;-49
2022/04/24 04:46:39;;;;;;;1.08;0.43;;;2.90;99.90;;;;;;21180753;27;20039;-45
2022/04/24 04:56:41;;;;;;;418.65;17.98;;;3.00;99.90;;;;;;21207026;27;20060;-46
2022/04/24 05:06:44;;;;;;;0.55;0.10;;;2.90;99.90;;;;;;21193403;27;20504;-46
2022/04/24 05:16:46;;;;;;;3.88;0.20;;;2.60;99.90;;;;;;21163331;27;20039;-48
2022/04/24 05:26:50;;;;;;;489.35;19.00;;;2.50;99.90;;;;;;21182198;27;20040;-47
2022/04/24 05:36:52;;;;;;;0.20;0.10;;;2.50;99.90;;;;;;21156390;27;20027;-50
2022/04/24 05:46:55;;;;;;;0.30;0.10;;;2.70;99.90;;;;;;21155877;27;20108;-46
2022/04/24 05:56:58;;;;;;;0.30;0.10;;;3.00;99.90;;;;;;21214099;27;20381;-47
2022/04/24 06:07:00;;;;;;;43.70;1.45;;;3.00;99.90;;;;;;21214341;27;20043;-47
2022/04/24 06:17:03;;;;;;;0.40;0.10;;;3.10;99.90;;;;;;21213515;27;20091;-47
2022/04/24 06:27:06;;;;;;;0.52;0.10;;;3.20;99.90;;;;;;21213104;27;20027;-47
2022/04/24 06:37:09;;;;;;;0.43;0.17;;;3.50;99.90;;;;;;21162785;28;20101;-50
2022/04/24 06:47:12;;;;;;;0.93;0.03;;;4.00;99.90;;;;;;21153983;27;20047;-50
2022/04/24 06:57:14;;;;;;;0.17;0.00;;;4.30;99.90;;;;;;21213361;27;20579;-49
2022/04/24 07:07:17;;;;;;;0.65;0.17;;;4.20;99.90;;;;;;21222785;27;20039;-49
2022/04/24 07:17:21;;;;;;;0.95;0.10;;;4.10;99.90;;;;;;21227709;27;20106;-50
2022/04/24 07:27:24;;;;;;;0.57;0.10;;;4.00;99.90;;;;;;21225343;27;20087;-46
2022/04/24 07:37:28;;;;;;;0.03;0.00;;;3.80;99.90;;;;;;21227642;27;20449;-50
2022/04/24 07:47:30;;;;;;;0.32;0.10;;;3.70;99.90;;;;;;21225161;27;20111;-48
2022/04/24 07:57:33;;;;;;;0.20;0.10;;;3.70;99.90;;;;;;21224624;27;20061;-53
2022/04/24 08:07:36;;;;;;;0.95;0.10;;;3.70;99.90;;;;;;21223939;27;20031;-49
2022/04/24 08:17:39;;;;;;;0.20;0.00;;;3.90;99.90;;;;;;21223166;27;20075;-47
2022/04/24 08:27:42;;;;;;;0.00;0.00;;;4.20;99.90;;;;;;21222144;27;20039;-50
2022/04/24 08:37:47;;;;;;;18.20;1.25;;;4.20;99.90;;;;;;21208607;27;20088;-53
2022/04/24 08:47:51;;;;;;;26.50;1.85;;;4.20;99.90;;;;;;21199723;27;20043;-51
2022/04/24 08:57:54;;;;;;;0.52;0.10;;;4.10;99.90;;;;;;21209945;27;20370;-49
2022/04/24 09:08:08;;;;;;;367.77;13.80;;;4.20;99.90;;;;;;21168073;27;20035;-52
2022/04/24 09:18:11;;;;;;;154.90;6.07;;;4.50;99.90;;;;;;21188152;27;20047;-47
2022/04/24 09:28:14;;;;;;;0.10;0.08;;;4.50;99.90;;;;;;21173202;27;20095;-49
2022/04/24 09:38:20;;;;;;;489.05;22.15;;;4.40;99.90;;;;;;21216484;27;20035;-49
2022/04/24 09:48:25;;;;;;;178.77;9.32;;;4.30;99.90;;;;;;21182917;27;20136;-47
2022/04/24 09:58:29;;;;;;;89.43;4.22;;;3.90;99.90;;;;;;21180703;27;20040;-48
2022/04/24 10:08:36;;;;;;;566.55;22.95;;;4.40;99.90;;;;;;21186816;27;20130;-48
2022/04/24 10:18:49;;;;;;;152.45;6.55;;;4.70;99.90;;;;;;21188540;27;20408;-47
2022/04/24 10:29:04;;;;;;;103.80;4.97;;;4.80;99.90;;;;;;21137763;27;20088;-50
2022/04/24 10:39:19;;;;;;;255.88;10.43;;;5.30;99.90;;;;;;21190370;28;20051;-47
2022/04/24 10:49:25;;;;;;;475.75;22.35;;;5.10;99.90;;;;;;21133890;28;20089;-47
2022/04/24 10:59:42;;;;;;;826.15;37.60;;;4.70;99.90;;;;;;21198193;28;20440;-47
2022/04/24 11:09:44;;;;;;;549.10;25.00;;;4.50;99.90;;;;;;21140669;28;20028;-54
2022/04/24 11:19:48;;;;;;;937.78;41.88;;;4.50;99.90;;;;;;21133810;27;20081;-52
2022/04/24 11:29:51;;;;;;;1186.45;49.88;;;4.50;99.90;;;;;;21189214;27;20039;-48
2022/04/24 11:40:01;;;;;;;839.30;37.88;;;4.40;99.90;;;;;;21188445;27;20039;-48
2022/04/24 11:50:14;;;;;;;1012.67;42.03;;;4.30;99.90;;;;;;21225870;27;20065;-51
2022/04/24 12:00:18;;;;;;;431.30;20.10;;;4.40;99.90;;;;;;21170635;27;20112;-48
2022/04/24 12:10:23;;;;;;;1.50;1.40;;;4.80;99.90;;;;;;21215774;27;20092;-54
2022/04/24 12:20:41;;;;;;;1.20;0.82;;;6.20;99.90;;;;;;21165315;27;20032;-52
2022/04/24 12:30:44;;;;;;;0.85;0.40;;;7.60;99.90;;;;;;21137600;28;20081;-56
2022/04/24 12:40:59;;;;;;;0.60;0.22;;;8.20;99.90;;;;;;21133747;28;20047;-49
2022/04/24 12:51:03;;;;;;;0.30;0.20;;;8.20;99.90;;;;;;21124645;28;20040;-49
2022/04/24 13:01:08;;;;;;;0.40;0.20;;;8.00;99.90;;;;;;21071521;28;20032;-49
2022/04/24 13:11:11;;;;;;;0.68;0.30;;;7.80;99.90;;;;;;21135455;28;20057;-52
2022/04/24 13:21:14;;;;;;;0.20;0.20;;;8.60;99.90;;;;;;21129541;28;20043;-49
2022/04/24 13:31:18;;;;;;;0.40;0.20;;;8.50;99.90;;;;;;21132288;28;20086;-53
2022/04/24 13:41:22;;;;;;;0.17;0.10;;;8.00;99.90;;;;;;21138073;27;20104;-55
2022/04/24 13:51:26;;;;;;;1.15;0.10;;;8.30;99.90;;;;;;21215085;27;20103;-55
2022/04/24 14:01:29;;;;;;;0.52;0.20;;;9.10;99.90;;;;;;21198160;27;20039;-52
2022/04/24 14:11:32;;;;;;;1.52;0.13;;;8.90;99.90;;;;;;21197772;27;20487;-54
2022/04/24 14:21:35;;;;;;;0.13;0.13;;;9.70;99.90;;;;;;21214299;27;20096;-54
2022/04/24 14:31:37;;;;;;;0.50;0.20;;;9.60;99.90;;;;;;21213426;27;20065;-49
2022/04/24 14:41:41;;;;;;;0.35;0.13;;;9.00;99.90;;;;;;21209420;28;20048;-53
2022/04/24 15:02:08;;;;;;;0.65;0.20;;;8.40;99.90;;;;;;21224861;27;20088;-59
2022/04/24 15:12:11;;;;;;;0.70;0.35;;;8.00;99.90;;;;;;21229141;27;20512;-59
2022/04/24 15:22:18;;;;;;;1.00;0.45;;;7.80;99.90;;;;;;21179278;27;20043;-50
2022/04/24 15:32:22;;;;;;;0.98;0.40;;;8.00;99.90;;;;;;21157128;27;20038;-58
2022/04/24 15:42:25;;;;;;;1.30;0.45;;;8.10;99.90;;;;;;21209864;27;20043;-50
2022/04/24 15:52:29;;;;;;;0.65;0.40;;;7.70;99.90;;;;;;21159391;27;20093;-52
2022/04/24 16:02:33;;;;;;;1.20;0.60;;;7.20;99.90;;;;;;21225241;27;20039;-52
2022/04/24 16:12:36;;;;;;;1.10;0.43;;;7.00;99.90;;;;;;21179219;27;20401;-53
2022/04/24 16:22:40;;;;;;;1.83;0.60;;;6.80;99.90;;;;;;21203176;27;20031;-59
2022/04/24 16:32:45;;;;;;;1.55;0.80;;;6.70;99.90;;;;;;21136896;28;20096;-50
2022/04/24 16:42:48;;;;;;;1.23;0.75;;;6.60;99.90;;;;;;21168556;27;20055;-53
2022/04/24 17:03:13;;;;;;;17.33;2.58;;;6.20;99.90;;;;;;21205494;27;20369;-59
2022/04/24 17:13:16;;;;;;;2.22;1.35;;;6.00;99.90;;;;;;21134291;28;20028;-51
2022/04/24 17:23:19;;;;;;;1.90;1.55;;;5.70;99.90;;;;;;21185911;27;20039;-51
2022/04/24 17:33:23;;;;;;;3.53;1.60;;;5.60;99.90;;;;;;21215551;27;20039;-52
2022/04/24 17:43:26;;;;;;;2.95;1.50;;;5.50;99.90;;;;;;21216617;27;20561;-53
2022/04/24 17:53:29;;;;;;;2.50;1.77;;;5.40;99.90;;;;;;21155766;27;20437;-53
2022/04/24 18:03:33;;;;;;;1.98;1.33;;;5.40;99.90;;;;;;21215002;27;20820;-51
2022/04/24 18:13:40;;;;;;;1.90;1.42;;;5.30;99.90;;;;;;21214406;27;20069;-58
2022/04/24 18:23:42;;;;;;;1.50;1.20;;;5.30;99.90;;;;;;21214235;27;20039;-54
2022/04/24 18:33:46;;;;;;;2.95;1.80;;;5.30;99.90;;;;;;21213426;27;20031;-53
2022/04/24 18:43:50;;;;;;;24.52;4.13;;;5.20;99.90;;;;;;21156892;28;20402;-54
2022/04/24 18:53:53;;;;;;;2.53;2.33;;;5.20;99.90;;;;;;21212743;28;20073;-58
2022/04/24 19:14:18;;;;;;;558.33;29.92;;;5.20;99.90;;;;;;21211607;28;20039;-51
2022/04/24 19:24:23;;;;;;;241.30;14.57;;;5.20;99.90;;;;;;21210881;28;20084;-52
2022/04/24 19:34:26;;;;;;;4.07;2.75;;;5.20;99.90;;;;;;21210945;28;20039;-52
2022/04/24 19:44:30;;;;;;;240.43;13.73;;;5.20;99.90;;;;;;21216298;27;20400;-59
2022/04/24 19:54:36;;;;;;;29.17;3.95;;;5.00;99.90;;;;;;21222210;27;20073;-53
2022/04/24 20:04:39;;;;;;;50.17;5.05;;;5.00;99.90;;;;;;21224793;27;20039;-53
2022/04/24 20:14:42;;;;;;;2.20;1.90;;;5.00;99.90;;;;;;21223965;27;20039;-54
2022/04/24 20:24:45;;;;;;;4.75;2.55;;;5.00;99.90;;;;;;21224396;27;20031;-59
2022/04/24 20:34:49;;;;;;;3.13;2.70;;;5.00;99.90;;;;;;21192933;27;20400;-52
2022/04/24 20:44:52;;;;;;;31.20;4.68;;;5.00;99.90;;;;;;21219533;27;20043;-53
2022/04/24 20:54:56;;;;;;;103.18;9.43;;;5.00;99.90;;;;;;21216792;27;20076;-50
2022/04/24 21:05:00;;;;;;;64.88;7.95;;;4.90;99.90;;;;;;21134768;28;20031;-52
2022/04/24 21:15:05;;;;;;;122.20;10.95;;;4.90;99.90;;;;;;21155577;27;20044;-59
2022/04/24 21:25:09;;;;;;;30.20;6.05;;;4.90;99.90;;;;;;21146580;27;20035;-52
2022/04/24 21:35:12;;;;;;;15.30;5.13;;;4.90;99.90;;;;;;21150885;28;20043;-49
2022/04/24 21:45:15;;;;;;;419.05;21.67;;;4.90;99.90;;;;;;21216362;27;20047;-52
2022/04/24 21:55:19;;;;;;;1291.18;72.75;;;5.00;99.90;;;;;;21213662;27;20027;-58
2022/04/24 22:05:22;;;;;;;245.57;15.88;;;5.00;99.90;;;;;;21214702;27;20039;-50
2022/04/24 22:15:24;;;;;;;13.07;7.18;;;5.00;99.90;;;;;;21214750;27;20039;-50
2022/04/24 22:25:26;;;;;;;10.00;7.68;;;4.80;99.90;;;;;;21215420;27;20089;-52
2022/04/24 22:35:29;;;;;;;12.02;7.50;;;4.80;99.90;;;;;;21213276;27;20111;-54
2022/04/24 22:45:32;;;;;;;11.13;7.75;;;4.80;99.90;;;;;;21176496;28;20044;-57
2022/04/24 22:55:35;;;;;;;8.15;6.63;;;4.70;99.90;;;;;;21139139;28;20112;-51
2022/04/24 23:05:37;;;;;;;11.07;7.00;;;4.80;99.90;;;;;;21127679;28;20058;-52
2022/04/24 23:15:40;;;;;;;6.20;4.80;;;4.60;99.90;;;;;;21127203;28;20031;-59
2022/04/24 23:25:43;;;;;;;6.40;4.45;;;4.30;99.90;;;;;;21164858;27;20120;-52
2022/04/24 23:35:46;;;;;;;8.38;6.65;;;4.00;99.90;;;;;;21226748;27;20039;-52
2022/04/24 23:45:49;;;;;;;11.07;7.63;;;3.60;99.90;;;;;;21226282;27;20087;-50
2022/04/24 23:55:52;;;;;;;9.85;7.70;;;3.60;99.90;;;;;;21224806;27;20215;-58
